createdAt,value
2023-02-16T00:00:19.585Z,10.25
2023-02-16T00:02:24.213Z,12.10
2023-02-16T00:04:30.006Z,13.75
2023-02-16T00:06:34.514Z,8.18
2023-02-16T00:08:36.100Z,14.55
2023-02-16T00:13:03.340Z,13.20
2023-02-16T00:15:18.478Z,9.98
2023-02-16T00:17:22.595Z,11.13
2023-02-16T00:21:31.338Z,16.88
2023-02-16T00:23:35.419Z,15.13
2023-02-16T00:25:37.078Z,21.38
2023-02-16T00:27:57.510Z,14.68
2023-02-16T00:30:01.850Z,17.70
2023-02-16T00:32:06.557Z,19.25
2023-02-16T00:34:24.628Z,22.67
2023-02-16T00:36:26.175Z,15.20
2023-02-16T00:38:30.610Z,19.35
2023-02-16T00:40:32.319Z,15.52
2023-02-16T00:42:52.399Z,14.43
2023-02-16T00:44:57.550Z,15.60
2023-02-16T00:47:03.102Z,16.05
2023-02-16T00:49:12.849Z,28.27
2023-02-16T00:51:25.808Z,19.88
2023-02-16T00:53:30.564Z,16.23
2023-02-16T00:55:36.163Z,17.63
2023-02-16T00:57:45.654Z,16.88
2023-02-16T00:59:48.394Z,18.48
2023-02-16T01:02:00.065Z,23.52
2023-02-16T01:04:09.689Z,20.43
2023-02-16T01:06:34.855Z,19.05
2023-02-16T01:08:56.671Z,15.77
2023-02-16T01:11:03.973Z,16.50
2023-02-16T01:13:14.547Z,12.95
2023-02-16T01:15:19.724Z,17.45
2023-02-16T01:17:26.304Z,17.92
2023-02-16T01:19:30.295Z,24.75
2023-02-16T01:23:38.161Z,20.60
2023-02-16T01:25:45.040Z,18.50
2023-02-16T01:27:52.010Z,15.48
2023-02-16T01:30:01.977Z,17.48
2023-02-16T01:32:04.394Z,19.23
2023-02-16T01:34:11.695Z,17.75
2023-02-16T01:36:25.152Z,17.58
2023-02-16T01:38:29.688Z,17.95
2023-02-16T01:40:34.411Z,25.20
2023-02-16T01:42:57.581Z,19.75
2023-02-16T01:45:20.546Z,20.83
2023-02-16T01:49:23.720Z,23.05
2023-02-16T01:51:35.705Z,21.85
2023-02-16T01:53:40.303Z,25.73
2023-02-16T01:55:43.414Z,20.63
2023-02-16T01:57:59.961Z,21.15
2023-02-16T02:00:22.922Z,26.90
2023-02-16T02:02:50.897Z,23.83
2023-02-16T02:05:17.382Z,18.45
2023-02-16T02:07:26.707Z,18.58
2023-02-16T02:09:31.237Z,16.92
2023-02-16T02:11:34.821Z,15.75
2023-02-16T02:13:40.509Z,18.70
2023-02-16T02:15:42.095Z,16.48
2023-02-16T02:17:46.299Z,12.98
2023-02-16T02:20:09.520Z,12.57
2023-02-16T02:22:55.678Z,15.75
2023-02-16T02:25:16.045Z,13.70
2023-02-16T02:27:27.501Z,12.45
2023-02-16T02:29:29.041Z,17.63
2023-02-16T02:31:45.786Z,15.00
2023-02-16T02:34:02.653Z,12.05
2023-02-16T02:36:04.089Z,13.02
2023-02-16T02:38:09.928Z,19.45
2023-02-16T02:40:11.412Z,22.20
2023-02-16T02:42:24.072Z,12.02
2023-02-16T02:44:29.119Z,17.98
2023-02-16T02:46:32.758Z,11.00
2023-02-16T02:48:36.929Z,11.70
2023-02-16T02:51:07.554Z,16.65
2023-02-16T02:53:27.990Z,15.07
2023-02-16T02:55:52.752Z,14.00
2023-02-16T02:58:15.979Z,10.85
2023-02-16T03:00:51.595Z,12.32
2023-02-16T03:02:56.611Z,17.05
2023-02-16T03:04:58.746Z,17.35
2023-02-16T03:07:02.098Z,18.42
2023-02-16T03:09:14.275Z,16.90
2023-02-16T03:11:39.832Z,15.23
2023-02-16T03:13:48.556Z,19.55
2023-02-16T03:15:55.988Z,27.65
2023-02-16T03:18:16.113Z,18.75
2023-02-16T03:20:38.965Z,19.77
2023-02-16T03:22:59.442Z,22.98
2023-02-16T03:25:22.180Z,18.50
2023-02-16T03:27:48.734Z,22.63
2023-02-16T03:29:54.191Z,25.88
2023-02-16T03:31:56.164Z,20.67
2023-02-16T03:33:58.074Z,22.85
2023-02-16T03:36:05.805Z,19.98
2023-02-16T03:38:07.692Z,19.17
2023-02-16T03:40:29.711Z,23.90
2023-02-16T03:42:33.768Z,21.42
2023-02-16T03:44:53.952Z,20.67
2023-02-16T03:46:55.545Z,12.38
2023-02-16T03:48:57.133Z,17.55
2023-02-16T03:53:08.257Z,26.42
2023-02-16T03:55:12.426Z,13.60
2023-02-16T03:59:20.177Z,17.35
2023-02-16T04:01:21.814Z,25.63
2023-02-16T04:03:41.877Z,18.23
2023-02-16T04:05:47.388Z,14.88
2023-02-16T04:07:59.349Z,15.13
2023-02-16T04:10:11.175Z,12.00
2023-02-16T04:12:34.033Z,14.45
2023-02-16T04:14:56.395Z,15.48
2023-02-16T04:17:04.326Z,16.00
2023-02-16T04:21:14.771Z,14.00
2023-02-16T04:23:20.951Z,7.15
2023-02-16T04:25:30.933Z,11.23
2023-02-16T04:27:36.204Z,13.73
2023-02-16T04:29:40.613Z,11.50
2023-02-16T04:31:42.255Z,10.38
2023-02-16T04:33:45.778Z,5.93
2023-02-16T04:35:52.412Z,14.75
2023-02-16T04:39:59.125Z,10.82
2023-02-16T04:42:01.465Z,7.68
2023-02-16T04:44:02.926Z,5.88
2023-02-16T04:46:23.972Z,7.35
2023-02-16T04:48:25.476Z,2.65
2023-02-16T04:50:29.765Z,5.38
2023-02-16T04:52:34.400Z,8.60
2023-02-16T04:54:41.921Z,7.40
2023-02-16T04:56:44.177Z,3.38
2023-02-16T04:58:48.472Z,10.00
2023-02-16T05:00:50.133Z,7.43
2023-02-16T05:02:54.292Z,7.55
2023-02-16T05:05:14.298Z,4.68
2023-02-16T05:07:15.794Z,1.45
2023-02-16T05:11:42.674Z,5.03
2023-02-16T05:14:05.634Z,6.20
2023-02-16T05:16:10.121Z,5.93
2023-02-16T05:18:11.612Z,7.22
2023-02-16T05:20:13.315Z,5.43
2023-02-16T05:22:14.918Z,2.13
2023-02-16T05:24:19.304Z,6.47
2023-02-16T05:26:23.478Z,6.80
2023-02-16T05:28:24.991Z,4.65
2023-02-16T05:30:26.623Z,4.75
2023-02-16T05:32:33.879Z,5.57
2023-02-16T05:34:35.630Z,10.32
2023-02-16T05:36:40.166Z,6.95
2023-02-16T05:38:47.999Z,9.27
2023-02-16T05:40:49.508Z,9.73
2023-02-16T05:42:56.898Z,8.45
2023-02-16T05:47:02.493Z,6.97
2023-02-16T05:49:10.499Z,8.50
2023-02-16T05:51:11.931Z,12.85
2023-02-16T05:53:13.489Z,8.57
2023-02-16T05:55:14.972Z,7.78
2023-02-16T05:57:35.742Z,6.57
2023-02-16T05:59:43.307Z,9.77
2023-02-16T06:01:49.403Z,6.00
2023-02-16T06:03:55.715Z,7.15
2023-02-16T06:06:00.949Z,10.35
2023-02-16T06:08:08.838Z,4.43
2023-02-16T06:10:10.323Z,8.05
2023-02-16T06:12:11.749Z,3.95
2023-02-16T06:14:14.517Z,5.63
2023-02-16T06:16:16.029Z,7.85
2023-02-16T06:18:36.060Z,10.15
2023-02-16T06:20:41.287Z,5.05
2023-02-16T06:22:42.935Z,7.03
2023-02-16T06:24:44.557Z,6.20
2023-02-16T06:28:50.031Z,7.97
2023-02-16T06:30:51.483Z,8.27
2023-02-16T06:32:53.117Z,15.63
2023-02-16T06:34:54.615Z,10.20
2023-02-16T06:36:58.816Z,12.07
2023-02-16T06:39:00.321Z,10.65
2023-02-16T06:41:05.003Z,8.30
2023-02-16T06:43:12.562Z,10.23
2023-02-16T06:45:16.953Z,8.55
2023-02-16T06:47:37.556Z,10.73
2023-02-16T06:49:41.718Z,5.47
2023-02-16T06:51:46.782Z,4.45
2023-02-16T06:53:50.804Z,4.70
2023-02-16T06:55:52.446Z,3.33
2023-02-16T06:57:56.964Z,4.05
2023-02-16T07:00:01.185Z,9.75
2023-02-16T07:02:09.492Z,4.45
2023-02-16T07:04:13.869Z,2.40
2023-02-16T07:08:22.438Z,5.80
2023-02-16T07:10:29.312Z,6.18
2023-02-16T07:12:39.988Z,4.10
2023-02-16T07:14:51.891Z,2.83
2023-02-16T07:17:05.484Z,6.25
2023-02-16T07:19:10.151Z,4.80
2023-02-16T07:21:14.697Z,2.30
2023-02-16T07:23:18.833Z,2.67
2023-02-16T07:25:39.548Z,5.30
2023-02-16T07:27:41.405Z,2.95
2023-02-16T07:29:48.146Z,2.38
2023-02-16T07:33:57.169Z,5.25
2023-02-16T07:36:02.247Z,5.57
2023-02-16T07:38:12.069Z,1.35
2023-02-16T07:40:16.003Z,6.60
2023-02-16T07:42:22.577Z,7.72
2023-02-16T07:44:45.061Z,6.43
2023-02-16T07:46:46.996Z,7.00
2023-02-16T07:48:49.340Z,6.85
2023-02-16T07:50:53.449Z,4.78
2023-02-16T07:52:57.845Z,6.32
2023-02-16T07:55:02.212Z,5.82
2023-02-16T07:57:06.698Z,11.90
2023-02-16T07:59:11.768Z,11.93
2023-02-16T08:01:15.908Z,8.35
2023-02-16T08:03:17.679Z,9.68
2023-02-16T08:05:19.409Z,11.68
2023-02-16T08:07:23.785Z,9.13
2023-02-16T08:09:25.382Z,8.57
2023-02-16T08:11:26.892Z,12.98
2023-02-16T08:13:28.377Z,15.32
2023-02-16T08:15:48.257Z,9.35
2023-02-16T08:17:55.807Z,9.68
2023-02-16T08:19:57.385Z,8.45
2023-02-16T08:24:08.297Z,9.23
2023-02-16T08:26:12.394Z,8.43
2023-02-16T08:28:14.857Z,7.82
2023-02-16T08:30:18.343Z,8.57
2023-02-16T08:32:20.254Z,7.53
2023-02-16T08:34:24.705Z,5.50
2023-02-16T08:36:26.482Z,8.05
2023-02-16T08:38:32.569Z,10.30
2023-02-16T08:40:36.767Z,7.50
2023-02-16T08:42:38.637Z,13.35
2023-02-16T08:44:40.967Z,9.52
2023-02-16T08:46:44.218Z,5.53
2023-02-16T08:48:48.826Z,4.07
2023-02-16T08:50:55.868Z,6.63
2023-02-16T08:52:58.320Z,2.95
2023-02-16T08:55:00.038Z,2.97
2023-02-16T08:57:02.925Z,3.92
2023-02-16T08:59:04.518Z,1.80
2023-02-16T09:01:08.355Z,3.53
2023-02-16T09:03:13.407Z,8.07
2023-02-16T09:05:18.308Z,6.07
2023-02-16T09:07:23.104Z,6.82
2023-02-16T09:09:27.533Z,3.42
2023-02-16T09:11:28.975Z,13.65
2023-02-16T09:13:30.404Z,11.52
2023-02-16T09:17:40.697Z,7.47
2023-02-16T09:19:43.679Z,5.47
2023-02-16T09:21:48.610Z,9.82
2023-02-16T09:23:54.556Z,11.38
2023-02-16T09:25:56.237Z,8.43
2023-02-16T09:27:57.850Z,12.18
2023-02-16T09:29:59.395Z,6.68
2023-02-16T09:32:01.104Z,5.65
2023-02-16T09:34:19.202Z,11.18
2023-02-16T09:36:39.239Z,9.05
2023-02-16T09:38:59.652Z,13.20
2023-02-16T09:41:07.915Z,7.72
2023-02-16T09:43:29.120Z,8.80
2023-02-16T09:45:51.369Z,11.23
2023-02-16T09:47:55.155Z,13.27
2023-02-16T09:50:01.319Z,11.60
2023-02-16T09:52:09.248Z,12.57
2023-02-16T09:54:32.395Z,11.65
2023-02-16T09:56:40.291Z,8.75
2023-02-16T09:58:44.666Z,7.90
2023-02-16T10:00:54.625Z,18.27
2023-02-16T10:02:59.455Z,14.82
2023-02-16T10:05:13.588Z,10.60
2023-02-16T10:07:39.999Z,16.88
2023-02-16T10:09:47.298Z,16.70
2023-02-16T10:11:49.651Z,18.42
2023-02-16T10:13:55.061Z,15.23
2023-02-16T10:16:22.255Z,11.43
2023-02-16T10:18:36.773Z,10.65
2023-02-16T10:20:44.418Z,15.32
2023-02-16T10:22:56.506Z,16.02
2023-02-16T10:25:14.712Z,15.40
2023-02-16T10:27:17.095Z,17.10
2023-02-16T10:29:24.556Z,19.38
2023-02-16T10:31:44.298Z,12.82
2023-02-16T10:34:16.302Z,20.27
2023-02-16T10:36:22.984Z,17.35
2023-02-16T10:38:35.135Z,17.95
2023-02-16T10:40:46.170Z,20.58
2023-02-16T10:43:12.142Z,17.07
2023-02-16T10:45:14.544Z,32.33
2023-02-16T10:47:41.162Z,24.33
2023-02-16T10:49:48.747Z,19.85
2023-02-16T10:52:09.904Z,23.50
2023-02-16T10:54:28.347Z,15.30
2023-02-16T10:56:41.987Z,20.80
2023-02-16T10:58:43.655Z,16.73
2023-02-16T11:01:11.298Z,17.45
2023-02-16T11:03:14.096Z,15.98
2023-02-16T11:05:36.538Z,12.10
2023-02-16T11:07:52.288Z,13.63
2023-02-16T11:09:57.799Z,13.43
2023-02-16T11:12:27.185Z,18.75
2023-02-16T11:14:31.005Z,14.20
2023-02-16T11:16:33.197Z,11.13
2023-02-16T11:18:40.174Z,10.57
2023-02-16T11:20:42.230Z,15.75
2023-02-16T11:22:46.242Z,12.10
2023-02-16T11:24:50.744Z,8.77
2023-02-16T11:27:02.584Z,8.45
2023-02-16T11:29:17.697Z,11.40
2023-02-16T11:31:22.123Z,11.88
2023-02-16T11:33:27.652Z,10.25
2023-02-16T11:35:31.917Z,6.95
2023-02-16T11:37:33.985Z,15.68
2023-02-16T11:39:40.102Z,5.18
2023-02-16T11:41:58.662Z,13.27
2023-02-16T11:44:01.811Z,10.40
2023-02-16T11:46:11.738Z,9.48
2023-02-16T11:48:33.552Z,12.27
2023-02-16T11:50:38.765Z,13.07
2023-02-16T11:52:40.233Z,13.35
2023-02-16T11:54:48.305Z,14.05
2023-02-16T11:57:03.632Z,10.02
2023-02-16T11:59:05.473Z,7.88
2023-02-16T12:01:31.418Z,13.27
2023-02-16T12:03:54.287Z,6.55
2023-02-16T12:05:58.489Z,10.63
2023-02-16T12:08:20.714Z,6.43
2023-02-16T12:11:00.824Z,5.43
2023-02-16T12:13:11.240Z,6.13
2023-02-16T12:15:19.602Z,3.60
2023-02-16T12:17:44.752Z,4.57
2023-02-16T12:19:48.008Z,4.20
2023-02-16T12:21:56.510Z,3.45
2023-02-16T12:24:32.009Z,3.80
2023-02-16T12:26:39.458Z,4.45
2023-02-16T12:29:20.661Z,3.83
2023-02-16T12:31:59.212Z,6.90
2023-02-16T12:34:09.709Z,3.63
2023-02-16T12:36:39.381Z,4.97
2023-02-16T12:38:53.023Z,2.63
2023-02-16T12:40:58.463Z,2.03
2023-02-16T12:43:21.696Z,5.70
2023-02-16T12:45:25.034Z,2.10
2023-02-16T12:47:34.468Z,4.45
2023-02-16T12:49:45.330Z,1.88
2023-02-16T12:51:52.128Z,4.65
2023-02-16T12:53:56.373Z,2.67
2023-02-16T12:56:03.737Z,6.25
2023-02-16T12:58:14.987Z,4.93
2023-02-16T13:00:21.679Z,2.80
2023-02-16T13:02:44.595Z,1.80
2023-02-16T13:04:53.253Z,3.08
2023-02-16T13:07:17.854Z,1.45
2023-02-16T13:09:22.007Z,1.20
2023-02-16T13:11:50.553Z,1.40
2023-02-16T13:13:53.696Z,1.67
2023-02-16T13:16:28.976Z,1.33
2023-02-16T13:18:38.926Z,6.57
2023-02-16T13:20:48.416Z,2.65
2023-02-16T13:23:25.013Z,3.67
2023-02-16T13:25:33.490Z,4.85
2023-02-16T13:27:47.561Z,2.00
2023-02-16T13:29:49.140Z,2.22
2023-02-16T13:32:09.330Z,2.10
2023-02-16T13:34:20.314Z,2.90
2023-02-16T13:36:37.651Z,1.73
2023-02-16T13:39:13.385Z,4.57
2023-02-16T13:41:36.075Z,5.10
2023-02-16T13:43:41.650Z,7.13
2023-02-16T13:45:47.313Z,3.75
2023-02-16T13:47:53.087Z,4.70
2023-02-16T13:50:01.989Z,3.85
2023-02-16T13:52:08.720Z,3.72
2023-02-16T13:54:24.287Z,3.90
2023-02-16T13:56:29.433Z,4.03
2023-02-16T13:58:33.810Z,3.17
2023-02-16T14:00:37.128Z,2.75
2023-02-16T14:02:51.699Z,5.50
2023-02-16T14:04:53.396Z,3.80
2023-02-16T14:07:32.558Z,3.55
2023-02-16T14:09:33.997Z,5.38
2023-02-16T14:11:57.442Z,3.35
2023-02-16T14:13:59.149Z,3.60
2023-02-16T14:16:10.695Z,4.82
2023-02-16T14:18:51.306Z,4.47
2023-02-16T14:21:20.736Z,8.85
2023-02-16T14:23:27.938Z,3.85
2023-02-16T14:25:36.149Z,3.30
2023-02-16T14:27:45.765Z,5.30
2023-02-16T14:29:56.702Z,5.53
2023-02-16T14:32:01.095Z,8.38
2023-02-16T14:34:07.662Z,6.47
2023-02-16T14:36:29.116Z,4.88
2023-02-16T14:38:35.193Z,9.18
2023-02-16T14:40:41.676Z,9.98
2023-02-16T14:42:52.490Z,5.28
2023-02-16T14:45:15.067Z,6.72
2023-02-16T14:47:19.390Z,7.50
2023-02-16T14:49:57.744Z,4.47
2023-02-16T14:52:37.178Z,4.22
2023-02-16T14:54:41.624Z,2.63
2023-02-16T14:56:53.256Z,4.85
2023-02-16T14:59:15.677Z,5.90
2023-02-16T15:01:17.981Z,6.13
2023-02-16T15:03:23.934Z,5.88
2023-02-16T15:05:29.567Z,4.03
2023-02-16T15:07:35.192Z,7.78
2023-02-16T15:09:41.922Z,5.22
2023-02-16T15:12:07.553Z,6.95
2023-02-16T15:14:11.132Z,4.80
2023-02-16T15:16:16.104Z,3.58
2023-02-16T15:18:24.328Z,3.90
2023-02-16T15:20:31.349Z,6.35
2023-02-16T15:22:33.554Z,6.20
2023-02-16T15:24:35.124Z,7.97
2023-02-16T15:26:39.563Z,6.55
2023-02-16T15:28:50.520Z,5.18
2023-02-16T15:30:59.849Z,5.50
2023-02-16T15:33:02.846Z,3.80
2023-02-16T15:35:21.702Z,5.95
2023-02-16T15:37:29.703Z,6.55
2023-02-16T15:39:43.636Z,6.35
2023-02-16T15:41:49.853Z,5.18
2023-02-16T15:43:52.081Z,6.07
2023-02-16T15:45:57.005Z,7.97
2023-02-16T15:48:15.266Z,7.00
2023-02-16T15:50:26.951Z,5.40
2023-02-16T15:52:32.331Z,10.02
2023-02-16T15:54:35.604Z,4.78
2023-02-16T15:56:47.284Z,6.45
2023-02-16T15:58:49.033Z,4.15
2023-02-16T16:00:54.748Z,5.03
2023-02-16T16:03:01.006Z,4.15
2023-02-16T16:05:26.212Z,4.70
2023-02-16T16:07:37.577Z,7.38
2023-02-16T16:09:43.146Z,7.13
2023-02-16T16:11:48.286Z,4.97
2023-02-16T16:13:52.378Z,7.18
2023-02-16T16:16:01.667Z,6.78
2023-02-16T16:18:05.320Z,10.93
2023-02-16T16:20:22.083Z,8.98
2023-02-16T16:22:42.901Z,4.40
2023-02-16T16:24:48.616Z,5.68
2023-02-16T16:26:59.182Z,6.85
2023-02-16T16:29:27.445Z,6.85
2023-02-16T16:31:35.210Z,4.57
2023-02-16T16:33:55.150Z,10.40
2023-02-16T16:36:13.954Z,5.65
2023-02-16T16:38:31.014Z,9.63
2023-02-16T16:40:38.067Z,13.25
2023-02-16T16:43:07.244Z,11.63
2023-02-16T16:45:24.677Z,6.35
2023-02-16T16:47:29.610Z,4.05
2023-02-16T16:50:03.235Z,8.85
2023-02-16T16:52:10.999Z,8.45
2023-02-16T16:54:33.594Z,7.93
2023-02-16T16:56:38.992Z,10.52
2023-02-16T16:58:44.486Z,7.80
2023-02-16T17:00:54.809Z,7.93
2023-02-16T17:02:59.602Z,9.65
2023-02-16T17:05:04.857Z,9.65
2023-02-16T17:07:08.870Z,8.45
2023-02-16T17:09:10.307Z,9.75
2023-02-16T17:11:22.721Z,5.25
2023-02-16T17:13:27.734Z,9.32
2023-02-16T17:15:32.105Z,9.48
2023-02-16T17:17:38.431Z,9.30
2023-02-16T17:19:42.335Z,8.55
2023-02-16T17:21:44.003Z,5.07
2023-02-16T17:23:52.791Z,7.32
2023-02-16T17:26:13.638Z,5.07
2023-02-16T17:28:16.462Z,9.98
2023-02-16T17:30:36.508Z,6.78
2023-02-16T17:32:44.009Z,3.10
2023-02-16T17:34:45.567Z,5.25
2023-02-16T17:36:47.486Z,3.75
2023-02-16T17:38:49.231Z,11.38
2023-02-16T17:40:52.517Z,7.55
2023-02-16T17:42:56.696Z,9.20
2023-02-16T17:45:01.058Z,8.80
2023-02-16T17:47:05.231Z,8.68
2023-02-16T17:51:14.618Z,8.70
2023-02-16T17:53:34.881Z,11.00
2023-02-16T17:55:36.309Z,10.85
2023-02-16T17:57:40.451Z,10.18
2023-02-16T17:59:42.305Z,9.57
2023-02-16T18:01:44.557Z,13.05
2023-02-16T18:03:46.057Z,8.10
2023-02-16T18:05:50.901Z,10.18
2023-02-16T18:07:52.337Z,8.70
2023-02-16T18:09:55.585Z,8.55
2023-02-16T18:11:57.047Z,14.63
2023-02-16T18:16:07.679Z,8.70
2023-02-16T18:18:09.515Z,11.55
2023-02-16T18:20:29.835Z,15.43
2023-02-16T18:24:38.326Z,12.05
2023-02-16T18:26:42.410Z,11.82
2023-02-16T18:28:49.789Z,14.55
2023-02-16T18:30:54.425Z,10.52
2023-02-16T18:33:04.937Z,13.63
2023-02-16T18:35:10.743Z,10.88
2023-02-16T18:37:12.208Z,13.10
2023-02-16T18:41:17.748Z,13.25
2023-02-16T18:45:26.173Z,14.18
2023-02-16T18:47:30.721Z,11.57
2023-02-16T18:49:38.232Z,12.85
2023-02-16T18:51:39.636Z,11.98
2023-02-16T18:53:41.403Z,13.20
2023-02-16T18:55:43.102Z,9.05
2023-02-16T18:57:47.870Z,8.10
2023-02-16T18:59:52.120Z,16.17
2023-02-16T19:01:57.213Z,23.58
2023-02-16T19:04:02.442Z,21.70
2023-02-16T19:06:04.340Z,19.75
2023-02-16T19:08:06.252Z,11.27
2023-02-16T19:10:10.947Z,9.35
2023-02-16T19:12:15.138Z,16.27
2023-02-16T19:14:19.567Z,20.95
2023-02-16T19:18:26.659Z,12.75
2023-02-16T19:20:29.649Z,17.88
2023-02-16T19:22:50.586Z,14.32
2023-02-16T19:24:54.753Z,20.98
2023-02-16T19:27:02.708Z,18.48
2023-02-16T19:29:22.975Z,24.33
2023-02-16T19:31:31.766Z,26.55
2023-02-16T19:33:34.726Z,21.25
2023-02-16T19:35:41.554Z,20.60
2023-02-16T19:37:44.379Z,19.20
2023-02-16T19:39:48.366Z,22.45
2023-02-16T19:41:50.599Z,25.17
2023-02-16T19:43:57.803Z,23.83
2023-02-16T19:46:18.838Z,25.70
2023-02-16T19:48:28.234Z,33.15
2023-02-16T19:50:31.326Z,25.00
2023-02-16T19:52:38.086Z,31.83
2023-02-16T19:54:44.743Z,26.40
2023-02-16T19:56:48.751Z,29.30
2023-02-16T19:58:52.831Z,25.73
2023-02-16T20:00:56.539Z,26.52
2023-02-16T20:03:00.248Z,19.80
2023-02-16T20:05:07.388Z,30.73
2023-02-16T20:07:09.941Z,23.15
2023-02-16T20:09:18.919Z,24.52
2023-02-16T20:11:24.937Z,23.88
2023-02-16T20:13:27.737Z,20.80
2023-02-16T20:15:29.236Z,26.85
2023-02-16T20:17:30.889Z,20.70
2023-02-16T20:21:40.901Z,26.90
2023-02-16T20:23:43.109Z,24.60
2023-02-16T20:26:08.919Z,19.80
2023-02-16T20:28:13.047Z,27.88
2023-02-16T20:30:19.762Z,29.98
2023-02-16T20:32:27.760Z,19.23
2023-02-16T20:34:32.482Z,16.67
2023-02-16T20:36:35.669Z,19.23
2023-02-16T20:38:37.435Z,17.83
2023-02-16T20:40:41.710Z,17.23
2023-02-16T20:42:46.370Z,20.70
2023-02-16T20:44:50.405Z,26.65
2023-02-16T20:46:52.232Z,19.27
2023-02-16T20:48:54.108Z,18.48
2023-02-16T20:50:59.960Z,16.30
2023-02-16T20:53:01.473Z,12.52
2023-02-16T20:55:03.070Z,13.52
2023-02-16T20:57:13.165Z,23.50
2023-02-16T20:59:41.545Z,15.10
2023-02-16T21:01:51.850Z,16.98
2023-02-16T21:03:57.820Z,14.65
2023-02-16T21:05:59.338Z,6.70
2023-02-16T21:08:19.468Z,8.25
2023-02-16T21:10:21.075Z,7.70
2023-02-16T21:12:25.749Z,14.00
2023-02-16T21:14:27.340Z,8.80
2023-02-16T21:18:36.342Z,6.25
2023-02-16T21:20:38.694Z,5.50
2023-02-16T21:22:43.923Z,4.18
2023-02-16T21:24:45.515Z,6.80
2023-02-16T21:28:54.389Z,6.68
2023-02-16T21:30:56.176Z,8.43
2023-02-16T21:33:01.084Z,7.30
2023-02-16T21:35:02.654Z,3.45
2023-02-16T21:37:04.362Z,10.80
2023-02-16T21:39:08.641Z,5.38
2023-02-16T21:41:27.542Z,6.28
2023-02-16T21:43:29.238Z,7.78
2023-02-16T21:45:30.904Z,5.43
2023-02-16T21:47:53.608Z,5.50
2023-02-16T21:49:57.998Z,3.92
2023-02-16T21:51:59.456Z,7.68
2023-02-16T21:54:01.035Z,6.75
2023-02-16T21:58:18.558Z,11.95
2023-02-16T22:00:20.328Z,10.75
2023-02-16T22:02:24.617Z,9.20
2023-02-16T22:04:28.883Z,3.95
2023-02-16T22:06:34.898Z,7.93
2023-02-16T22:08:38.119Z,7.25
2023-02-16T22:10:42.270Z,5.25
2023-02-16T22:12:43.715Z,9.52
2023-02-16T22:14:45.422Z,9.27
2023-02-16T22:16:50.775Z,8.07
2023-02-16T22:18:59.212Z,5.65
2023-02-16T22:21:02.384Z,9.32
2023-02-16T22:23:03.877Z,10.00
2023-02-16T22:25:23.975Z,5.75
2023-02-16T22:27:28.206Z,6.30
2023-02-16T22:29:29.628Z,12.07
2023-02-16T22:33:38.090Z,12.73
2023-02-16T22:35:39.545Z,9.50
2023-02-16T22:37:43.723Z,11.70
2023-02-16T22:39:45.136Z,8.45
2023-02-16T22:41:48.455Z,10.88
2023-02-16T22:43:56.259Z,14.55
2023-02-16T22:46:16.865Z,11.73
2023-02-16T22:48:25.613Z,10.55
2023-02-16T22:50:35.729Z,16.73
2023-02-16T22:52:42.396Z,13.18
2023-02-16T22:54:45.376Z,7.53
2023-02-16T22:56:49.723Z,13.80
2023-02-16T22:59:12.146Z,19.02
2023-02-16T23:01:18.122Z,7.82
2023-02-16T23:03:21.318Z,15.63
2023-02-16T23:05:30.880Z,16.75
2023-02-16T23:07:34.972Z,15.52
2023-02-16T23:09:41.339Z,7.15
2023-02-16T23:11:45.485Z,13.40
2023-02-16T23:13:52.759Z,15.23
2023-02-16T23:16:04.309Z,10.82
2023-02-16T23:18:07.806Z,9.48
2023-02-16T23:20:11.847Z,14.93
2023-02-16T23:22:14.601Z,13.30
2023-02-16T23:24:18.846Z,16.10
2023-02-16T23:26:21.410Z,13.10
2023-02-16T23:28:42.196Z,10.13
2023-02-16T23:30:46.784Z,14.52
2023-02-16T23:32:51.114Z,10.02
2023-02-16T23:35:11.024Z,14.75
2023-02-16T23:37:12.823Z,16.20
2023-02-16T23:39:15.934Z,16.83
2023-02-16T23:41:19.952Z,13.65
2023-02-16T23:43:21.425Z,13.38
2023-02-16T23:45:23.137Z,11.13
2023-02-16T23:47:27.264Z,14.35
2023-02-16T23:49:28.902Z,22.42
2023-02-16T23:51:30.602Z,15.48
2023-02-16T23:53:35.068Z,13.77
2023-02-16T23:55:36.560Z,17.55
2023-02-16T23:57:38.076Z,18.05
2023-02-16T23:59:39.760Z,16.45
